Time;durP1;ratioP1;P1;durP2;ratioP2;P2;SDS_P1;SDS_P2;PMS_P1;PMS_P2;Temp;Humidity;BMP_temperature;BMP_pressure;BME280_temperature;BME280_humidity;BME280_pressure;Samples;Min_cycle;Max_cycle;Signal;HPM_P1;HPM_P2
2021/12/25 00:00:34;;;;;;;13.57;2.20;;;1.90;99.90;;;;;;6153700;23;20024;-90
2021/12/25 00:02:59;;;;;;;10.75;2.17;;;4.50;99.90;;;;;;6153929;23;20078;-89
2021/12/25 00:05:25;;;;;;;10.55;2.00;;;2.70;99.90;;;;;;6153175;23;20296;-89
2021/12/25 00:07:51;;;;;;;8.15;2.33;;;2.70;99.90;;;;;;6153274;23;20028;-89
2021/12/25 00:10:17;;;;;;;8.32;1.80;;;1.80;99.90;;;;;;6178471;23;20580;-89
2021/12/25 00:12:42;;;;;;;11.77;2.85;;;1.70;99.90;;;;;;6177757;23;20105;-89
2021/12/25 00:15:08;;;;;;;8.25;1.98;;;3.70;99.90;;;;;;6153822;23;20131;-90
2021/12/25 00:17:35;;;;;;;6.57;1.67;;;1.60;99.90;;;;;;6153722;23;20017;-89
2021/12/25 00:20:01;;;;;;;7.15;1.80;;;3.50;99.90;;;;;;6178674;23;20079;-89
2021/12/25 00:22:27;;;;;;;10.43;2.53;;;3.60;99.90;;;;;;6178630;23;20411;-89
2021/12/25 00:24:53;;;;;;;14.07;1.63;;;1.60;99.90;;;;;;6153585;23;20017;-89
2021/12/25 00:29:56;;;;;;;7.82;1.88;;;1.50;99.90;;;;;;6202814;23;20021;-88
2021/12/25 00:34:48;;;;;;;10.38;1.50;;;2.30;99.90;;;;;;6177897;23;20021;-89
2021/12/25 00:37:14;;;;;;;8.82;1.90;;;2.20;99.90;;;;;;6177802;23;20014;-89
2021/12/25 00:39:39;;;;;;;9.63;2.42;;;1.40;99.90;;;;;;6177883;23;20362;-89
2021/12/25 00:42:06;;;;;;;6.25;1.50;;;1.30;99.90;;;;;;6178101;23;20092;-88
2021/12/25 00:44:33;;;;;;;9.23;1.55;;;1.30;99.90;;;;;;6177752;23;20013;-89
2021/12/25 00:47:00;;;;;;;8.25;1.75;;;1.30;99.90;;;;;;6153198;23;20021;-89
2021/12/25 00:49:26;;;;;;;7.07;1.80;;;2.70;99.90;;;;;;6153310;23;20088;-88
2021/12/25 00:51:53;;;;;;;7.32;1.50;;;1.20;99.90;;;;;;6178094;22;20378;-89
2021/12/25 00:54:19;;;;;;;4.55;1.90;;;1.40;99.90;;;;;;6152574;23;20020;-88
2021/12/25 00:56:45;;;;;;;5.40;1.70;;;2.90;99.90;;;;;;6178181;22;20017;-89
2021/12/25 00:59:10;;;;;;;7.88;1.73;;;2.90;99.90;;;;;;6152699;23;20036;-89
2021/12/25 01:01:37;;;;;;;6.85;1.45;;;1.00;99.90;;;;;;6177537;23;20017;-88
2021/12/25 01:04:04;;;;;;;5.78;1.73;;;1.10;99.90;;;;;;6152343;22;20045;-88
2021/12/25 01:06:30;;;;;;;4.00;1.38;;;1.10;99.90;;;;;;6177407;22;20018;-88
2021/12/25 01:08:56;;;;;;;6.97;1.40;;;2.10;99.90;;;;;;6152635;23;20017;-88
2021/12/25 01:11:24;;;;;;;6.65;1.80;;;1.50;99.90;;;;;;6152915;23;20017;-89
2021/12/25 01:13:58;;;;;;;10.55;1.85;;;1.80;99.90;;;;;;6152520;23;20399;-88
2021/12/25 01:17:05;;;;;;;5.30;1.40;;;2.20;99.90;;;;;;6152576;23;20406;-88
2021/12/25 01:19:41;;;;;;;7.57;1.60;;;0.90;99.90;;;;;;6177351;23;20025;-88
2021/12/25 01:35:15;;;;;;;8.35;1.90;;;0.70;99.90;;;;;;6202214;23;20077;-88
2021/12/25 01:38:04;;;;;;;6.20;1.80;;;0.70;99.90;;;;;;6177297;23;20021;-88
2021/12/25 01:48:18;;;;;;;6.65;1.50;;;0.60;99.90;;;;;;6202711;23;20028;-88
2021/12/25 01:50:45;;;;;;;8.23;1.67;;;0.50;99.90;;;;;;6177828;23;20017;-88
2021/12/25 01:53:10;;;;;;;5.53;1.65;;;2.70;99.90;;;;;;6177325;23;20334;-87
2021/12/25 01:55:36;;;;;;;5.97;1.50;;;2.30;99.90;;;;;;6152620;23;20066;-87
2021/12/25 01:58:04;;;;;;;5.63;1.52;;;0.50;99.90;;;;;;6177229;23;20017;-87
2021/12/25 02:00:36;;;;;;;5.78;2.33;;;1.30;99.90;;;;;;6177412;23;20450;-87
2021/12/25 02:03:04;;;;;;;6.70;1.77;;;0.40;99.90;;;;;;6152533;23;20351;-87
2021/12/25 02:05:29;;;;;;;10.13;1.90;;;1.20;99.90;;;;;;6152504;23;20017;-87
2021/12/25 02:07:55;;;;;;;7.38;1.77;;;2.20;99.90;;;;;;6152576;23;20045;-87
2021/12/25 02:10:21;;;;;;;7.55;1.52;;;0.30;99.90;;;;;;6177423;23;20016;-87
2021/12/25 02:12:48;;;;;;;7.97;2.42;;;0.40;99.90;;;;;;6152794;23;20096;-87
2021/12/25 02:15:18;;;;;;;2.03;1.50;;;0.20;99.90;;;;;;6177380;23;20021;-88
2021/12/25 02:20:29;;;;;;;8.25;1.98;;;1.00;99.90;;;;;;6202244;23;20086;-87
2021/12/25 02:23:01;;;;;;;5.70;1.92;;;2.20;99.90;;;;;;6177079;23;20013;-87
2021/12/25 02:25:28;;;;;;;6.20;1.50;;;0.20;99.90;;;;;;6177281;22;20028;-87
2021/12/25 02:27:54;;;;;;;2.63;1.50;;;0.10;99.90;;;;;;6177048;23;20097;-87
2021/12/25 02:30:20;;;;;;;4.07;1.27;;;0.00;99.90;;;;;;6178941;23;20384;-87
2021/12/25 02:32:46;;;;;;;5.00;1.52;;;0.10;99.90;;;;;;6177109;22;20040;-86
2021/12/25 02:35:13;;;;;;;2.20;1.27;;;-0.10;99.90;;;;;;6177426;22;20109;-87
2021/12/25 02:37:40;;;;;;;3.85;1.85;;;-0.10;99.90;;;;;;6176642;23;20354;-86
2021/12/25 02:40:08;;;;;;;5.75;1.73;;;1.70;99.90;;;;;;6177321;23;20017;-86
2021/12/25 02:42:35;;;;;;;13.10;1.63;;;0.00;99.90;;;;;;6176941;23;20021;-86
2021/12/25 02:45:03;;;;;;;3.92;1.63;;;-0.10;99.90;;;;;;6176986;23;20092;-86
2021/12/25 02:47:30;;;;;;;2.22;1.30;;;-0.10;99.90;;;;;;6177136;23;20097;-86
2021/12/25 02:49:56;;;;;;;5.82;1.58;;;-0.20;99.90;;;;;;6177273;23;20343;-86
2021/12/25 02:52:23;;;;;;;4.50;1.98;;;-0.20;99.90;;;;;;6177116;23;20354;-85
2021/12/25 02:54:49;;;;;;;5.38;1.50;;;-0.20;99.90;;;;;;6176887;23;20024;-86
2021/12/25 02:57:16;;;;;;;5.85;1.67;;;-0.20;99.90;;;;;;6177213;23;20478;-86
2021/12/25 02:59:42;;;;;;;7.78;1.75;;;-0.30;99.90;;;;;;6177065;23;20017;-86
2021/12/25 03:02:10;;;;;;;3.90;1.23;;;-0.30;99.90;;;;;;6177215;23;20355;-86
2021/12/25 03:04:38;;;;;;;4.82;1.40;;;-0.30;99.90;;;;;;6176863;23;20024;-85
2021/12/25 03:07:05;;;;;;;4.05;1.33;;;-0.30;99.90;;;;;;6177109;23;20052;-86
2021/12/25 03:09:31;;;;;;;7.07;1.98;;;-0.40;99.90;;;;;;6177176;23;20017;-85
2021/12/25 03:11:57;;;;;;;4.13;1.40;;;-0.50;99.90;;;;;;6177411;23;20324;-85
2021/12/25 03:14:33;;;;;;;2.70;1.42;;;-0.50;99.90;;;;;;6176948;23;20020;-85
2021/12/25 03:16:59;;;;;;;3.35;1.35;;;-0.50;99.90;;;;;;6177514;23;20355;-85
2021/12/25 03:19:31;;;;;;;5.75;1.55;;;-0.50;99.90;;;;;;6178181;22;20024;-85
2021/12/25 03:21:57;;;;;;;5.60;1.50;;;-0.60;99.90;;;;;;6178238;23;20025;-86
2021/12/25 03:24:24;;;;;;;5.03;1.25;;;-0.40;99.90;;;;;;6178030;23;20024;-85
2021/12/25 03:26:53;;;;;;;6.00;1.33;;;-0.50;99.90;;;;;;6178035;23;20013;-86
2021/12/25 03:29:18;;;;;;;4.53;1.48;;;-0.50;99.90;;;;;;6177963;23;20703;-85
2021/12/25 03:31:45;;;;;;;6.15;1.42;;;-0.70;99.90;;;;;;6153353;23;20063;-85
2021/12/25 03:34:11;;;;;;;2.53;1.30;;;-0.60;99.90;;;;;;6178139;23;20064;-85
2021/12/25 03:36:37;;;;;;;1.63;1.13;;;-0.70;99.90;;;;;;6178148;23;20013;-85
2021/12/25 03:39:04;;;;;;;2.80;1.27;;;-0.70;99.90;;;;;;6177855;23;20415;-85
2021/12/25 03:41:29;;;;;;;3.95;1.50;;;-0.80;99.90;;;;;;6176948;23;20112;-85
2021/12/25 03:43:57;;;;;;;3.70;1.60;;;-0.80;99.90;;;;;;6177882;23;20374;-85
2021/12/25 03:46:22;;;;;;;5.13;1.55;;;-0.70;99.90;;;;;;6153752;23;20013;-86
2021/12/25 03:59:16;;;;;;;3.90;1.30;;;-0.40;99.90;;;;;;6202860;23;20051;-85
2021/12/25 04:06:49;;;;;;;1.42;1.25;;;-1.00;99.90;;;;;;6177939;23;20096;-85
2021/12/25 04:09:27;;;;;;;4.18;1.40;;;-1.10;99.90;;;;;;6177875;23;20389;-85
2021/12/25 04:11:56;;;;;;;2.60;1.38;;;-1.10;99.90;;;;;;6178182;23;20024;-85
2021/12/25 04:14:22;;;;;;;2.78;1.30;;;-1.00;99.90;;;;;;6178091;23;20020;-85
2021/12/25 04:16:48;;;;;;;4.30;1.17;;;-1.00;99.90;;;;;;6178351;23;20728;-85
2021/12/25 04:19:14;;;;;;;2.20;1.10;;;-1.10;99.90;;;;;;6178498;23;20024;-84
2021/12/25 04:21:48;;;;;;;2.92;1.15;;;0.90;99.90;;;;;;6178122;23;20029;-85
2021/12/25 04:24:14;;;;;;;2.17;1.08;;;-1.00;99.90;;;;;;6153165;23;20024;-84
2021/12/25 04:26:43;;;;;;;2.97;1.20;;;-1.10;99.90;;;;;;6177651;22;20095;-85
2021/12/25 04:32:09;;;;;;;3.25;1.23;;;-0.20;99.90;;;;;;6177918;22;20129;-84
2021/12/25 04:48:37;;;;;;;2.25;1.20;;;-1.20;99.90;;;;;;6203066;23;20064;-84
2021/12/25 05:01:53;;;;;;;1.70;0.98;;;-1.30;99.90;;;;;;6202821;23;20032;-85
2021/12/25 05:06:48;;;;;;;2.53;1.27;;;-1.30;99.90;;;;;;6202776;23;20032;-85
2021/12/25 05:09:14;;;;;;;2.33;1.23;;;-1.30;99.90;;;;;;6178011;23;20021;-84
2021/12/25 05:11:40;;;;;;;1.65;1.00;;;-1.40;99.90;;;;;;6178244;22;20507;-85
2021/12/25 05:14:05;;;;;;;1.25;0.88;;;-1.40;99.90;;;;;;6177613;23;20124;-85
2021/12/25 05:16:31;;;;;;;1.48;1.13;;;-1.40;99.90;;;;;;6177758;23;20024;-85
2021/12/25 05:18:57;;;;;;;5.38;1.48;;;0.70;99.90;;;;;;6177937;23;20021;-85
2021/12/25 05:21:23;;;;;;;2.40;1.20;;;-1.50;99.90;;;;;;6153238;23;20339;-84
2021/12/25 05:23:49;;;;;;;8.40;1.95;;;-1.50;99.90;;;;;;6152899;23;20481;-84
2021/12/25 05:26:15;;;;;;;2.05;1.23;;;-1.50;99.90;;;;;;6153160;23;20013;-85
2021/12/25 05:28:44;;;;;;;3.55;1.50;;;-1.50;99.90;;;;;;6178005;23;20009;-85
2021/12/25 05:31:12;;;;;;;2.42;1.50;;;-1.10;99.90;;;;;;6177805;23;20028;-85
2021/12/25 05:33:38;;;;;;;2.15;1.58;;;-1.50;99.90;;;;;;6177870;23;20096;-85
2021/12/25 05:36:05;;;;;;;1.70;1.10;;;-1.10;99.90;;;;;;6177389;23;20025;-86
2021/12/25 05:38:33;;;;;;;1.42;1.30;;;-1.50;99.90;;;;;;6177640;23;20123;-85
2021/12/25 05:40:59;;;;;;;8.10;1.90;;;-1.60;99.90;;;;;;6152674;23;20106;-85
2021/12/25 05:43:25;;;;;;;2.45;1.58;;;-2.30;99.90;;;;;;6152387;23;20017;-85
2021/12/25 05:45:50;;;;;;;1.10;1.00;;;-1.50;99.90;;;;;;6178187;23;20312;-85
2021/12/25 05:48:16;;;;;;;1.08;0.98;;;-1.50;99.90;;;;;;6153150;23;20490;-85
2021/12/25 05:50:42;;;;;;;1.60;1.00;;;-1.60;99.90;;;;;;6153829;23;20028;-85
2021/12/25 05:53:07;;;;;;;3.03;1.00;;;-1.60;99.90;;;;;;6177608;23;20017;-85
2021/12/25 05:55:33;;;;;;;4.70;2.65;;;-1.70;99.90;;;;;;6177873;23;20025;-85
2021/12/25 05:58:02;;;;;;;1.92;1.27;;;-1.80;99.90;;;;;;6177386;23;20021;-86
2021/12/25 06:00:27;;;;;;;1.65;1.10;;;-1.70;99.90;;;;;;6177907;23;20055;-86
2021/12/25 06:02:53;;;;;;;1.05;1.05;;;-1.70;99.90;;;;;;6177983;23;20029;-86
2021/12/25 06:05:19;;;;;;;1.65;1.20;;;-1.80;99.90;;;;;;6177027;23;20088;-86
2021/12/25 06:07:45;;;;;;;2.50;1.10;;;-1.70;99.90;;;;;;6152050;23;20025;-86
2021/12/25 06:10:11;;;;;;;1.40;1.15;;;-1.40;99.90;;;;;;6177288;23;20399;-86
2021/12/25 06:12:38;;;;;;;1.30;1.15;;;-1.60;99.90;;;;;;6176747;23;20020;-86
2021/12/25 06:15:06;;;;;;;3.78;1.13;;;-1.60;99.90;;;;;;6152842;23;20078;-87
2021/12/25 06:17:32;;;;;;;1.27;1.17;;;-1.60;99.90;;;;;;6177576;23;20021;-86
2021/12/25 06:19:58;;;;;;;3.80;1.35;;;-1.80;99.90;;;;;;6177271;23;20104;-86
2021/12/25 06:22:24;;;;;;;3.33;1.33;;;-1.80;99.90;;;;;;6152648;23;20028;-86
2021/12/25 06:24:49;;;;;;;1.67;0.93;;;-1.80;99.90;;;;;;6152767;23;20017;-86
2021/12/25 06:27:20;;;;;;;12.63;1.48;;;0.30;99.90;;;;;;6152521;23;20059;-86
2021/12/25 06:29:46;;;;;;;5.35;1.30;;;-2.10;99.90;;;;;;6153092;23;20021;-86
2021/12/25 06:32:12;;;;;;;1.10;1.10;;;0.10;99.90;;;;;;6177212;23;20048;-87
2021/12/25 06:34:38;;;;;;;2.05;0.98;;;-0.70;99.90;;;;;;6176937;23;20020;-86
2021/12/25 06:37:04;;;;;;;4.32;1.05;;;-2.00;99.90;;;;;;6152686;23;20017;-86
2021/12/25 06:39:31;;;;;;;1.77;1.10;;;;;;;;;;6152808;23;20025;-86
2021/12/25 06:41:57;;;;;;;1.48;1.10;;;-1.80;99.90;;;;;;6202568;23;20092;-87
2021/12/25 06:44:25;;;;;;;2.60;1.17;;;-1.30;99.90;;;;;;6177502;23;20102;-86
2021/12/25 06:46:51;;;;;;;1.48;0.90;;;-1.10;99.90;;;;;;6177558;23;20020;-86
2021/12/25 06:49:17;;;;;;;1.80;1.40;;;-2.10;99.90;;;;;;6177451;23;20024;-87
2021/12/25 06:51:43;;;;;;;3.78;1.38;;;-2.20;99.90;;;;;;6176961;23;20342;-87
2021/12/25 06:54:09;;;;;;;4.45;1.42;;;-0.30;99.90;;;;;;6152210;23;20047;-86
2021/12/25 06:56:35;;;;;;;3.10;1.73;;;-2.20;99.90;;;;;;6177954;23;20015;-87
2021/12/25 06:59:01;;;;;;;2.30;1.38;;;-0.10;99.90;;;;;;6177732;22;20095;-87
2021/12/25 07:01:26;;;;;;;2.35;2.15;;;-1.50;99.90;;;;;;6179739;23;20430;-87
2021/12/25 07:03:52;;;;;;;3.08;2.38;;;0.40;99.90;;;;;;6177287;22;20048;-87
2021/12/25 07:06:18;;;;;;;2.83;1.45;;;0.40;99.90;;;;;;6177387;23;20017;-87
2021/12/25 07:08:44;;;;;;;2.53;1.70;;;-2.00;99.90;;;;;;6177279;23;20542;-87
2021/12/25 07:11:09;;;;;;;1.15;1.00;;;-2.00;99.90;;;;;;6177020;23;20105;-87
2021/12/25 07:13:35;;;;;;;2.83;1.50;;;-2.10;99.90;;;;;;6177128;23;20017;-87
2021/12/25 07:16:01;;;;;;;1.35;1.02;;;-0.90;99.90;;;;;;6177362;23;20021;-87
2021/12/25 07:18:26;;;;;;;1.00;1.00;;;-1.70;99.90;;;;;;6152989;23;20448;-87
2021/12/25 07:20:52;;;;;;;1.33;1.23;;;-1.50;99.90;;;;;;6177686;23;20114;-87
2021/12/25 07:23:18;;;;;;;1.30;1.20;;;-2.20;99.90;;;;;;6152416;23;20033;-87
2021/12/25 07:25:45;;;;;;;1.85;1.02;;;;;;;;;;6177203;23;20017;-87
2021/12/25 07:28:11;;;;;;;1.77;1.25;;;-2.10;99.90;;;;;;6202376;22;20091;-86
2021/12/25 07:30:37;;;;;;;1.38;1.27;;;-0.90;99.90;;;;;;6177195;23;20533;-86
2021/12/25 07:33:03;;;;;;;2.28;1.38;;;-2.10;99.90;;;;;;6152479;23;20021;-86
2021/12/25 07:35:29;;;;;;;1.90;1.00;;;-1.80;99.90;;;;;;6177577;23;20359;-86
2021/12/25 07:37:58;;;;;;;1.80;1.55;;;-1.40;99.90;;;;;;6177472;23;20083;-86
2021/12/25 07:40:25;;;;;;;9.98;1.70;;;-2.50;99.90;;;;;;6152605;23;20017;-86
2021/12/25 07:42:51;;;;;;;3.42;1.25;;;-2.00;99.90;;;;;;6152362;22;20017;-86
2021/12/25 07:45:17;;;;;;;2.90;1.50;;;-1.90;99.90;;;;;;6177099;23;20393;-86
2021/12/25 07:47:48;;;;;;;3.25;1.48;;;-1.50;99.90;;;;;;6177626;22;20013;-86
2021/12/25 07:50:14;;;;;;;3.17;1.45;;;-2.20;99.90;;;;;;6177199;23;20013;-86
2021/12/25 07:52:41;;;;;;;1.98;1.35;;;-2.10;99.90;;;;;;6176380;23;20065;-86
2021/12/25 07:55:08;;;;;;;2.75;1.13;;;-2.10;99.90;;;;;;6175052;23;20021;-85
2021/12/25 07:57:34;;;;;;;2.15;1.20;;;-2.10;99.90;;;;;;6176959;23;20013;-85
2021/12/25 07:59:59;;;;;;;0.90;0.90;;;-2.10;99.90;;;;;;6177469;23;20470;-86
2021/12/25 08:02:25;;;;;;;1.50;1.13;;;-2.10;99.90;;;;;;6176941;23;20451;-85
2021/12/25 08:05:36;;;;;;;1.52;1.42;;;-2.10;99.90;;;;;;6177749;22;20017;-85
2021/12/25 08:07:41;;;;;;;1.02;1.00;;;0.00;99.90;;;;;;6168058;23;20033;-85
2021/12/25 08:10:13;;;;;;;0.98;0.80;;;-2.10;99.90;;;;;;6178356;23;20032;-85
2021/12/25 08:12:42;;;;;;;3.45;1.42;;;-2.00;99.90;;;;;;6177877;23;20021;-85
2021/12/25 08:15:09;;;;;;;2.05;1.30;;;-2.10;99.90;;;;;;6177640;23;20138;-85
2021/12/25 08:17:35;;;;;;;3.08;1.30;;;-2.00;99.90;;;;;;6177511;23;20116;-85
2021/12/25 08:20:01;;;;;;;2.38;1.17;;;-2.20;99.90;;;;;;6177573;22;20048;-85
2021/12/25 08:22:26;;;;;;;1.70;1.33;;;0.00;99.90;;;;;;6152394;23;20025;-86
2021/12/25 08:24:52;;;;;;;3.08;1.23;;;-2.00;99.90;;;;;;6152786;23;20055;-85
2021/12/25 08:27:18;;;;;;;2.53;1.40;;;-2.10;99.90;;;;;;6177280;23;20104;-85
2021/12/25 08:29:44;;;;;;;1.38;0.95;;;-1.20;99.90;;;;;;6179383;23;20402;-85
2021/12/25 08:32:10;;;;;;;7.18;1.50;;;-2.10;99.90;;;;;;6176432;23;20055;-85
2021/12/25 08:34:37;;;;;;;1.00;1.00;;;-2.20;99.90;;;;;;6176993;22;20111;-85
2021/12/25 08:37:04;;;;;;;0.90;0.90;;;0.20;99.90;;;;;;6178595;23;20355;-87
2021/12/25 08:39:31;;;;;;;2.88;1.20;;;-0.80;99.90;;;;;;6152023;23;20024;-84
2021/12/25 08:42:02;;;;;;;1.52;1.02;;;-1.00;99.90;;;;;;6152191;23;20029;-85
2021/12/25 08:44:34;;;;;;;4.22;1.30;;;-1.80;99.90;;;;;;6176686;23;20023;-85
2021/12/25 08:47:04;;;;;;;11.65;1.55;;;-1.90;99.90;;;;;;6151996;23;20013;-86
2021/12/25 08:49:31;;;;;;;0.90;0.90;;;-1.70;99.90;;;;;;6152570;23;20020;-84
2021/12/25 08:52:00;;;;;;;1.33;1.10;;;-1.90;99.90;;;;;;6153067;23;20422;-84
2021/12/25 08:54:26;;;;;;;7.70;1.30;;;-1.90;99.90;;;;;;6177374;22;20024;-84
2021/12/25 08:56:52;;;;;;;2.05;1.17;;;-1.70;99.90;;;;;;6155283;23;20013;-84
2021/12/25 08:59:18;;;;;;;2.85;1.50;;;-1.60;99.90;;;;;;6179563;23;20024;-84
2021/12/25 09:01:44;;;;;;;4.53;1.33;;;-1.40;99.90;;;;;;6154674;23;20116;-85
2021/12/25 09:04:10;;;;;;;4.13;1.30;;;-1.60;99.90;;;;;;6147770;23;20300;-85
2021/12/25 09:06:38;;;;;;;3.15;1.20;;;-1.40;99.90;;;;;;6177974;22;20454;-84
2021/12/25 09:09:05;;;;;;;1.85;1.10;;;-1.60;99.90;;;;;;6154495;23;20013;-84
2021/12/25 09:11:32;;;;;;;4.07;1.10;;;-1.50;99.90;;;;;;6177669;23;20052;-84
2021/12/25 09:13:58;;;;;;;3.97;1.33;;;-1.40;99.90;;;;;;6152054;23;20029;-84
2021/12/25 09:16:23;;;;;;;3.00;1.48;;;-1.50;99.90;;;;;;6151125;23;20137;-85
2021/12/25 09:18:49;;;;;;;1.77;1.30;;;-1.20;99.90;;;;;;6152014;23;20021;-85
2021/12/25 09:21:16;;;;;;;4.00;1.20;;;0.10;99.90;;;;;;6152289;23;20021;-85
2021/12/25 09:23:41;;;;;;;4.03;1.20;;;-1.20;99.90;;;;;;6151904;23;20013;-85
2021/12/25 09:26:07;;;;;;;4.40;1.30;;;0.60;99.90;;;;;;6151905;23;20082;-85
2021/12/25 09:28:33;;;;;;;0.93;0.85;;;1.30;99.90;;;;;;6152544;23;20324;-84
2021/12/25 09:30:59;;;;;;;1.95;1.08;;;-1.00;99.90;;;;;;6152026;23;20021;-85
2021/12/25 09:33:25;;;;;;;3.30;1.20;;;-0.10;99.90;;;;;;6176895;23;20025;-84
2021/12/25 09:35:51;;;;;;;1.67;1.30;;;0.50;99.90;;;;;;6177255;23;20442;-82
2021/12/25 09:38:16;;;;;;;4.00;1.35;;;1.10;99.90;;;;;;6177178;23;20092;-83
2021/12/25 09:40:43;;;;;;;9.35;1.70;;;-0.90;99.90;;;;;;6176854;23;20031;-83
2021/12/25 09:43:08;;;;;;;4.95;1.58;;;-0.80;99.90;;;;;;6176636;23;20032;-84
2021/12/25 09:45:35;;;;;;;7.93;2.15;;;1.50;99.90;;;;;;6176673;23;20399;-83
2021/12/25 09:48:00;;;;;;;6.68;1.63;;;-1.20;99.90;;;;;;6176079;23;20025;-82
2021/12/25 09:50:26;;;;;;;6.22;1.77;;;-0.90;99.90;;;;;;6175401;23;20024;-83
2021/12/25 09:52:52;;;;;;;7.60;1.85;;;0.80;99.90;;;;;;6175060;23;20013;-83
2021/12/25 09:55:18;;;;;;;4.10;1.73;;;-0.60;99.90;;;;;;6174756;23;20108;-83
2021/12/25 09:57:46;;;;;;;2.10;1.35;;;-0.60;99.90;;;;;;6174042;23;20021;-82
2021/12/25 10:00:17;;;;;;;7.55;1.50;;;-0.60;99.90;;;;;;6151954;23;20032;-83
2021/12/25 10:02:48;;;;;;;2.22;1.30;;;-0.50;99.90;;;;;;6174279;23;20394;-82
2021/12/25 10:05:24;;;;;;;3.00;1.00;;;-0.50;99.90;;;;;;6176838;23;20096;-82
2021/12/25 10:08:07;;;;;;;1.20;1.10;;;0.40;99.90;;;;;;6154362;23;20099;-82
2021/12/25 10:10:45;;;;;;;3.40;1.10;;;-0.30;99.90;;;;;;6154228;23;20013;-80
2021/12/25 10:13:21;;;;;;;6.43;1.40;;;-0.30;99.90;;;;;;6177029;23;20009;-81
2021/12/25 10:15:47;;;;;;;2.13;1.20;;;-0.30;99.90;;;;;;6175991;23;20025;-84
2021/12/25 10:18:13;;;;;;;1.10;1.00;;;1.80;99.90;;;;;;6177941;23;20048;-81
2021/12/25 10:20:40;;;;;;;3.90;1.20;;;-0.30;99.90;;;;;;6178839;23;20024;-83
2021/12/25 10:23:08;;;;;;;2.45;1.02;;;-0.30;99.90;;;;;;6178920;23;20013;-82
2021/12/25 10:25:50;;;;;;;1.88;1.58;;;-0.40;99.90;;;;;;6176937;23;20032;-82
2021/12/25 10:28:21;;;;;;;2.08;0.98;;;1.70;99.90;;;;;;6176582;23;20036;-81
2021/12/25 10:31:00;;;;;;;1.88;1.10;;;-0.20;99.90;;;;;;6178098;23;20020;-81
2021/12/25 10:33:29;;;;;;;1.50;1.20;;;-0.20;99.90;;;;;;6176171;23;20097;-81
2021/12/25 10:35:58;;;;;;;2.45;1.02;;;-0.20;99.90;;;;;;6151289;23;20051;-80
2021/12/25 10:38:24;;;;;;;1.00;0.95;;;-0.10;99.90;;;;;;6151632;23;20025;-81
2021/12/25 10:41:09;;;;;;;3.40;1.27;;;-0.10;99.90;;;;;;6175221;23;20046;-79
2021/12/25 10:43:40;;;;;;;2.85;1.23;;;-0.10;99.90;;;;;;6177080;23;20017;-78
2021/12/25 10:46:06;;;;;;;1.23;1.13;;;1.50;99.90;;;;;;6174675;23;20017;-79
2021/12/25 10:48:32;;;;;;;3.60;1.38;;;0.00;99.90;;;;;;6175083;23;20027;-76
2021/12/25 10:50:59;;;;;;;1.25;1.10;;;-0.10;99.90;;;;;;6175591;23;20017;-81
2021/12/25 10:53:31;;;;;;;3.35;1.50;;;1.70;99.90;;;;;;6150695;23;20035;-80
2021/12/25 10:56:06;;;;;;;4.35;1.08;;;1.60;99.90;;;;;;6175676;23;20288;-83
2021/12/25 10:58:32;;;;;;;1.40;1.30;;;0.00;99.90;;;;;;6175567;23;20351;-77
2021/12/25 11:00:58;;;;;;;3.35;1.10;;;0.10;99.90;;;;;;6174790;22;20046;-80
2021/12/25 11:03:29;;;;;;;3.08;1.48;;;0.10;99.90;;;;;;6174994;23;20542;-82
2021/12/25 11:06:03;;;;;;;1.23;1.13;;;0.20;99.90;;;;;;6175389;23;20017;-79
2021/12/25 11:08:29;;;;;;;4.28;1.58;;;0.20;99.90;;;;;;6153667;23;20017;-81
2021/12/25 11:11:00;;;;;;;2.30;1.33;;;0.20;99.90;;;;;;6179257;23;20013;-80
2021/12/25 11:13:35;;;;;;;2.58;1.35;;;0.40;99.90;;;;;;6153762;23;20014;-81
2021/12/25 11:16:08;;;;;;;1.10;1.00;;;0.20;99.90;;;;;;6176091;22;20020;-79
2021/12/25 11:19:02;;;;;;;6.43;1.45;;;0.20;99.90;;;;;;6178382;23;20059;-79
2021/12/25 11:21:29;;;;;;;1.85;1.35;;;0.30;99.90;;;;;;6151664;23;20017;-80
2021/12/25 11:24:07;;;;;;;1.63;1.13;;;0.30;99.90;;;;;;6176838;23;20024;-81
2021/12/25 11:26:33;;;;;;;1.13;1.02;;;0.20;99.90;;;;;;6174996;23;20044;-78
2021/12/25 11:28:59;;;;;;;4.78;1.10;;;0.30;99.90;;;;;;6150877;23;20021;-78
2021/12/25 11:31:25;;;;;;;4.05;1.50;;;0.10;99.90;;;;;;6176053;23;20436;-81
2021/12/25 11:33:51;;;;;;;1.95;1.58;;;0.60;99.90;;;;;;6175731;23;20552;-78
2021/12/25 11:36:17;;;;;;;1.08;0.93;;;0.20;99.90;;;;;;6175215;23;20470;-79
2021/12/25 11:38:44;;;;;;;2.42;1.30;;;0.10;99.90;;;;;;6177446;23;20025;-77
2021/12/25 11:41:11;;;;;;;6.40;1.40;;;0.00;99.90;;;;;;6178645;23;20024;-78
2021/12/25 11:43:41;;;;;;;1.23;0.90;;;0.00;99.90;;;;;;6175091;23;20017;-79
2021/12/25 11:46:08;;;;;;;1.88;1.08;;;0.00;99.90;;;;;;6176666;23;20447;-78
2021/12/25 11:48:35;;;;;;;2.33;1.38;;;0.10;99.90;;;;;;6178165;22;20288;-77
2021/12/25 11:51:01;;;;;;;1.30;1.25;;;0.10;99.90;;;;;;6176014;23;20032;-77
2021/12/25 11:53:44;;;;;;;2.17;1.13;;;0.10;99.90;;;;;;6175905;23;20021;-77
2021/12/25 11:56:38;;;;;;;2.00;1.17;;;2.10;99.90;;;;;;6176791;23;20024;-77
2021/12/25 11:59:14;;;;;;;1.50;1.40;;;0.10;99.90;;;;;;6176758;23;20060;-77
2021/12/25 12:01:40;;;;;;;4.20;1.50;;;0.00;99.90;;;;;;6176671;23;20017;-78
2021/12/25 12:04:10;;;;;;;1.45;1.23;;;1.90;99.90;;;;;;6151241;23;20062;-79
2021/12/25 12:06:45;;;;;;;2.35;1.27;;;0.10;99.90;;;;;;6151685;23;20147;-77
2021/12/25 12:09:13;;;;;;;2.70;1.17;;;0.10;99.90;;;;;;6176013;23;20017;-78
2021/12/25 12:11:41;;;;;;;2.35;1.50;;;0.10;99.90;;;;;;6175201;23;20473;-78
2021/12/25 12:14:13;;;;;;;2.45;1.23;;;0.10;99.90;;;;;;6176485;23;20109;-79
2021/12/25 12:16:46;;;;;;;4.13;1.10;;;0.10;99.90;;;;;;6177029;23;20092;-79
2021/12/25 12:19:32;;;;;;;1.55;1.25;;;0.10;99.90;;;;;;6177064;23;20106;-77
2021/12/25 12:21:59;;;;;;;1.30;1.20;;;0.20;99.90;;;;;;6152406;23;20040;-78
2021/12/25 12:24:49;;;;;;;1.63;1.10;;;0.20;99.90;;;;;;6152196;23;20120;-77
2021/12/25 12:27:39;;;;;;;3.10;1.17;;;0.20;99.90;;;;;;6177118;23;20021;-78
2021/12/25 12:30:09;;;;;;;2.70;0.90;;;0.30;99.90;;;;;;6176936;22;20347;-77
2021/12/25 12:32:43;;;;;;;3.67;1.90;;;0.30;99.90;;;;;;6176930;23;20017;-78
2021/12/25 12:35:33;;;;;;;2.97;1.30;;;0.30;99.90;;;;;;6152155;23;20027;-77
2021/12/25 12:38:27;;;;;;;3.65;1.17;;;0.30;99.90;;;;;;6151979;23;20025;-77
2021/12/25 12:41:11;;;;;;;7.78;1.63;;;0.30;99.90;;;;;;6177217;23;20376;-77
2021/12/25 12:43:50;;;;;;;1.23;1.17;;;0.40;99.90;;;;;;6176543;23;20092;-77
2021/12/25 12:46:16;;;;;;;3.85;1.33;;;0.60;99.90;;;;;;6151535;23;20025;-78
2021/12/25 12:49:01;;;;;;;2.85;1.30;;;0.30;99.90;;;;;;6177847;23;20102;-78
2021/12/25 12:51:27;;;;;;;3.85;1.30;;;0.30;99.90;;;;;;6176082;23;20017;-79
2021/12/25 12:53:52;;;;;;;2.58;1.45;;;2.40;99.90;;;;;;6176858;23;20447;-77
2021/12/25 12:56:21;;;;;;;7.30;1.70;;;0.40;99.90;;;;;;6177803;23;20087;-77
2021/12/25 12:58:52;;;;;;;5.95;1.75;;;0.40;99.90;;;;;;6176666;23;20032;-76
2021/12/25 13:01:18;;;;;;;2.28;1.60;;;0.50;99.90;;;;;;6177271;23;20028;-78
2021/12/25 13:03:44;;;;;;;3.17;1.52;;;2.40;99.90;;;;;;6176981;22;20077;-76
2021/12/25 13:06:13;;;;;;;1.55;1.20;;;0.40;99.90;;;;;;6176264;23;20024;-77
2021/12/25 13:08:41;;;;;;;3.63;1.63;;;0.50;99.90;;;;;;6177010;23;20013;-76
2021/12/25 13:11:14;;;;;;;3.95;1.40;;;0.50;99.90;;;;;;6176790;23;20092;-77
2021/12/25 13:13:50;;;;;;;4.35;1.75;;;0.50;99.90;;;;;;6152201;23;20013;-77
2021/12/25 13:16:16;;;;;;;;;;;0.50;99.90;;;;;;6153064;23;20028;-78
2021/12/25 13:18:47;;;;;;;3.00;1.50;;;0.40;99.90;;;;;;6175872;23;20262;-76
2021/12/25 13:21:16;;;;;;;3.22;1.25;;;0.40;99.90;;;;;;6151667;23;20028;-76
2021/12/25 13:23:51;;;;;;;2.25;1.73;;;0.30;99.90;;;;;;6175811;22;20035;-76
2021/12/25 13:26:20;;;;;;;3.28;1.27;;;0.30;99.90;;;;;;6178899;23;20036;-76
2021/12/25 13:28:47;;;;;;;2.20;1.15;;;0.30;99.90;;;;;;6180611;23;20092;-76
2021/12/25 13:31:18;;;;;;;3.47;1.35;;;0.80;99.90;;;;;;6178510;23;20067;-80
2021/12/25 13:33:52;;;;;;;3.38;1.60;;;0.40;99.90;;;;;;6175599;23;20013;-78
2021/12/25 13:36:22;;;;;;;2.28;1.30;;;0.30;99.90;;;;;;6175325;23;20024;-79
2021/12/25 13:38:54;;;;;;;5.50;1.42;;;0.40;99.90;;;;;;6175384;23;20063;-79
2021/12/25 13:41:31;;;;;;;1.38;1.27;;;0.40;99.90;;;;;;6177954;23;20017;-77
2021/12/25 13:44:09;;;;;;;3.53;1.60;;;0.50;99.90;;;;;;6175455;23;20021;-77
2021/12/25 13:46:51;;;;;;;3.40;1.48;;;0.50;99.90;;;;;;6175697;23;20419;-76
2021/12/25 13:49:36;;;;;;;3.38;1.60;;;0.50;99.90;;;;;;6176304;23;20031;-77
2021/12/25 13:52:06;;;;;;;5.07;1.20;;;0.50;99.90;;;;;;6176090;23;20032;-78
2021/12/25 13:54:33;;;;;;;2.10;1.50;;;0.50;99.90;;;;;;6151262;23;20025;-78
2021/12/25 13:56:59;;;;;;;2.95;1.35;;;0.50;99.90;;;;;;6176777;23;20118;-78
2021/12/25 13:59:25;;;;;;;1.20;1.17;;;0.50;99.90;;;;;;6177720;22;20338;-78
2021/12/25 14:02:07;;;;;;;5.85;2.38;;;2.40;99.90;;;;;;6175361;23;20076;-78
2021/12/25 14:04:34;;;;;;;4.43;1.70;;;0.50;99.90;;;;;;6176580;23;20021;-77
2021/12/25 14:07:00;;;;;;;3.88;1.50;;;0.40;99.90;;;;;;6176540;22;20025;-77
2021/12/25 14:09:26;;;;;;;7.28;1.73;;;2.40;99.90;;;;;;6176503;22;20479;-78
2021/12/25 14:11:54;;;;;;;5.47;1.65;;;0.30;99.90;;;;;;6176522;23;20473;-77
2021/12/25 14:14:22;;;;;;;2.20;1.33;;;0.30;99.90;;;;;;6176520;23;20112;-77